Time;durP1;ratioP1;P1;durP2;ratioP2;P2;SDS_P1;SDS_P2;PMS_P1;PMS_P2;Temp;Humidity;BMP_temperature;BMP_pressure;BME280_temperature;BME280_humidity;BME280_pressure;Samples;Min_cycle;Max_cycle;Signal;HPM_P1;HPM_P2
2022/05/26 00:01:13;;;;;;;2.67;1.02;;;;;;;19.56;89.58;99085.59;5033406;28;20033;-92
2022/05/26 00:03:58;;;;;;;0.28;0.28;;;;;;;19.48;89.62;99081.81;5053850;28;20523;-92
2022/05/26 00:06:24;;;;;;;0.22;0.22;;;;;;;19.41;89.70;99084.28;5055164;28;20416;-87
2022/05/26 00:08:50;;;;;;;0.22;0.22;;;;;;;19.39;90.09;99081.91;5038166;28;20039;-86
2022/05/26 00:11:20;;;;;;;0.00;0.00;;;;;;;19.40;89.92;99080.00;5034319;28;20060;-89
2022/05/26 00:13:46;;;;;;;0.10;0.10;;;;;;;19.40;89.83;99085.44;5049424;28;20028;-86
2022/05/26 00:16:12;;;;;;;0.20;0.20;;;;;;;19.39;89.73;99084.63;5031495;28;20052;-84
2022/05/26 00:18:37;;;;;;;0.20;0.20;;;;;;;19.40;89.63;99086.22;5047799;28;20419;-82
2022/05/26 00:21:04;;;;;;;0.00;0.00;;;;;;;19.42;89.44;99092.09;5037020;28;20021;-85
2022/05/26 00:23:31;;;;;;;0.20;0.20;;;;;;;19.43;89.45;99090.19;5049691;28;20040;-92
2022/05/26 00:25:56;;;;;;;0.30;0.30;;;;;;;19.43;88.88;99076.63;5037038;28;20032;-84
2022/05/26 00:28:22;;;;;;;0.10;0.10;;;;;;;19.39;88.72;99065.66;5030203;28;20029;-90
2022/05/26 00:30:48;;;;;;;0.05;0.05;;;;;;;19.40;88.80;99075.38;5031449;28;20036;-90
2022/05/26 00:33:16;;;;;;;0.10;0.10;;;;;;;19.40;88.81;99071.88;5036248;28;20045;-90
2022/05/26 00:35:43;;;;;;;0.00;0.00;;;;;;;19.41;88.81;99073.44;5050163;28;20110;-92
2022/05/26 00:38:13;;;;;;;0.10;0.10;;;;;;;19.38;88.35;99068.69;5050301;28;20032;-86
2022/05/26 00:40:40;;;;;;;0.10;0.10;;;;;;;19.36;88.30;99064.41;5029836;28;20586;-89
2022/05/26 00:43:07;;;;;;;0.00;0.00;;;;;;;19.30;88.48;99056.81;5030035;28;20038;-85
2022/05/26 00:45:39;;;;;;;0.35;0.35;;;;;;;19.24;88.68;99066.25;5029430;28;20033;-90
2022/05/26 00:51:32;;;;;;;0.10;0.10;;;;;;;19.20;88.71;99066.94;5031372;28;20171;-90
2022/05/26 00:54:04;;;;;;;0.90;0.47;;;;;;;19.18;88.65;99071.13;5031884;28;20044;-91
2022/05/26 00:56:58;;;;;;;0.10;0.10;;;;;;;19.14;88.26;99067.47;5029542;28;20021;-88
2022/05/26 01:00:06;;;;;;;0.00;0.00;;;;;;;19.13;88.54;99079.47;5039756;28;20032;-94
2022/05/26 01:02:41;;;;;;;0.10;0.10;;;;;;;19.13;88.64;99071.31;5040595;28;20041;-94
2022/05/26 01:05:39;;;;;;;0.10;0.10;;;;;;;19.12;88.49;99073.22;5050557;28;20029;-87
2022/05/26 01:08:40;;;;;;;;;;;;;;;19.12;88.84;99069.75;5049249;28;20400;-91
2022/05/26 01:11:21;;;;;;;0.13;0.13;;;;;;;19.11;88.80;99068.16;5040832;28;20008;-94
2022/05/26 01:14:16;;;;;;;0.00;0.00;;;;;;;19.11;88.63;99068.16;5087098;28;20414;-91
2022/05/26 01:17:11;;;;;;;0.10;0.10;;;;;;;19.09;88.07;99063.06;5083533;28;20034;-95
2022/05/26 01:20:20;;;;;;;0.05;0.05;;;;;;;19.09;87.70;99062.25;5080796;28;20086;-95
2022/05/26 01:23:07;;;;;;;0.10;0.10;;;;;;;19.06;87.28;99068.34;5072116;28;20081;-87
2022/05/26 01:25:51;;;;;;;0.00;0.00;;;;;;;19.06;87.43;99071.84;5075152;28;20044;-88
2022/05/26 01:28:16;;;;;;;0.00;0.00;;;;;;;19.04;86.85;99074.91;5075296;28;20024;-87
2022/05/26 01:30:59;;;;;;;0.00;0.00;;;;;;;19.02;86.80;99076.34;5075316;28;20024;-89
2022/05/26 01:33:42;;;;;;;0.25;0.25;;;;;;;18.96;85.89;99062.22;5055736;28;20120;-89
2022/05/26 01:36:13;;;;;;;0.10;0.10;;;;;;;18.96;86.35;99056.00;5056040;28;20072;-83
2022/05/26 01:38:53;;;;;;;0.00;0.00;;;;;;;18.95;86.61;99052.50;5067289;28;20048;-91
2022/05/26 01:41:44;;;;;;;0.00;0.00;;;;;;;18.94;86.72;99063.66;5055387;28;20028;-85
2022/05/26 01:45:06;;;;;;;0.00;0.00;;;;;;;18.94;86.60;99074.50;5072089;28;20041;-87
2022/05/26 01:47:48;;;;;;;0.00;0.00;;;;;;;18.92;86.32;99064.00;5034733;28;20554;-83
2022/05/26 01:50:23;;;;;;;0.20;0.20;;;;;;;18.88;86.35;99061.13;5044649;28;20032;-88
2022/05/26 01:53:00;;;;;;;0.00;0.00;;;;;;;18.87;86.01;99056.03;5040764;28;20037;-86
2022/05/26 01:55:45;;;;;;;0.00;0.00;;;;;;;18.87;85.65;99053.31;5032850;28;20026;-93
2022/05/26 01:58:34;;;;;;;0.03;0.03;;;;;;;18.84;85.00;99065.59;5033379;28;20029;-90
2022/05/26 02:01:03;;;;;;;0.00;0.00;;;;;;;18.79;84.80;99067.75;5032719;28;20036;-86
2022/05/26 02:03:33;;;;;;;0.10;0.10;;;;;;;18.78;84.61;99063.44;5053430;28;20111;-92
2022/05/26 02:06:09;;;;;;;0.00;0.00;;;;;;;18.75;84.29;99073.03;5053538;28;20119;-87
2022/05/26 02:08:42;;;;;;;0.10;0.10;;;;;;;18.70;84.23;99070.50;5052467;28;20040;-90
2022/05/26 02:11:19;;;;;;;0.10;0.10;;;;;;;18.67;83.93;99060.34;5040480;28;20504;-92
2022/05/26 02:14:00;;;;;;;0.10;0.10;;;;;;;18.67;83.81;99060.34;5033369;28;20558;-92
2022/05/26 02:16:31;;;;;;;0.00;0.00;;;;;;;18.64;83.42;99066.41;5048356;28;20099;-90
2022/05/26 02:19:14;;;;;;;0.00;0.00;;;;;;;18.60;83.15;99068.97;5032830;28;20032;-86
2022/05/26 02:21:55;;;;;;;0.00;0.00;;;;;;;18.52;83.36;99069.84;5050734;28;20471;-88
2022/05/26 02:24:31;;;;;;;0.10;0.10;;;;;;;18.50;83.67;99069.38;5052112;28;20024;-87
2022/05/26 02:26:57;;;;;;;0.00;0.00;;;;;;;18.49;83.56;99074.00;5036323;28;20508;-88
2022/05/26 02:32:11;;;;;;;0.05;0.05;;;;;;;18.40;83.51;99060.50;5046458;28;20044;-89
2022/05/26 02:34:40;;;;;;;0.00;0.00;;;;;;;18.41;83.81;99064.00;5035950;28;20468;-89
2022/05/26 02:37:08;;;;;;;0.00;0.00;;;;;;;18.42;83.93;99067.50;5037472;28;20394;-90
2022/05/26 02:39:33;;;;;;;0.03;0.03;;;;;;;18.38;83.99;99056.53;5048412;28;20539;-88
2022/05/26 02:42:00;;;;;;;0.10;0.10;;;;;;;18.39;84.42;99060.81;5034668;28;20032;-88
2022/05/26 02:44:30;;;;;;;0.10;0.10;;;;;;;18.37;84.64;99060.34;5053767;28;20445;-91
2022/05/26 02:47:23;;;;;;;0.05;0.05;;;;;;;18.36;84.65;99059.56;5051962;28;20033;-86
2022/05/26 02:50:20;;;;;;;0.10;0.10;;;;;;;18.36;84.98;99072.31;5040454;28;20053;-87
2022/05/26 02:53:01;;;;;;;0.00;0.00;;;;;;;18.31;85.27;99056.25;5046289;28;20127;-85
2022/05/26 02:56:06;;;;;;;0.10;0.10;;;;;;;18.31;85.42;99059.75;5031832;28;20443;-85
2022/05/26 02:58:41;;;;;;;0.00;0.00;;;;;;;18.27;85.78;99072.34;5031502;28;20105;-86
2022/05/26 03:01:18;;;;;;;0.00;0.00;;;;;;;18.29;86.08;99083.66;5031536;28;20115;-88
2022/05/26 03:03:52;;;;;;;0.00;0.00;;;;;;;18.28;85.80;99089.41;5031319;28;20524;-87
2022/05/26 03:06:47;;;;;;;0.00;0.00;;;;;;;18.27;85.88;99088.59;5036113;28;20090;-84
2022/05/26 03:09:13;;;;;;;0.05;0.05;;;;;;;18.22;85.90;99084.19;5035021;28;20029;-85
2022/05/26 03:11:48;;;;;;;0.00;0.00;;;;;;;18.19;86.04;99082.09;5031232;28;20392;-87
2022/05/26 03:14:14;;;;;;;0.03;0.03;;;;;;;18.12;85.95;99083.75;5044407;28;20040;-89
2022/05/26 03:16:41;;;;;;;0.10;0.10;;;;;;;18.06;86.20;99091.25;5035156;28;20041;-83
2022/05/26 03:19:07;;;;;;;0.10;0.10;;;;;;;18.05;86.48;99095.88;5050864;28;20062;-85
2022/05/26 03:21:32;;;;;;;0.00;0.00;;;;;;;18.05;86.53;99087.75;5043861;28;20037;-87
2022/05/26 03:23:58;;;;;;;0.00;0.00;;;;;;;18.07;86.56;99090.91;5031131;28;20409;-87
2022/05/26 03:26:23;;;;;;;0.00;0.00;;;;;;;18.14;86.79;99092.31;5031166;28;20037;-87
2022/05/26 03:28:49;;;;;;;0.00;0.00;;;;;;;18.19;86.78;99092.16;5049029;28;20407;-91
2022/05/26 03:31:14;;;;;;;0.00;0.00;;;;;;;18.26;86.73;99100.56;5048613;28;20506;-88
2022/05/26 03:41:53;;;;;;;0.10;0.10;;;;;;;18.96;84.91;99121.03;5031945;28;20037;-88
2022/05/26 03:44:20;;;;;;;0.10;0.10;;;;;;;19.18;84.64;99123.41;5048116;28;20404;-84
2022/05/26 03:46:47;;;;;;;0.00;0.00;;;;;;;19.41;83.16;99119.53;5045991;28;20041;-87
2022/05/26 03:49:13;;;;;;;0.00;0.00;;;;;;;19.64;83.69;99106.38;5032139;28;20053;-85
2022/05/26 03:51:38;;;;;;;0.00;0.00;;;;;;;19.93;81.79;99113.63;5031408;28;20088;-87
2022/05/26 03:54:04;;;;;;;0.00;0.00;;;;;;;20.22;81.49;99106.41;5031152;28;20103;-87
2022/05/26 03:56:29;;;;;;;0.30;0.30;;;;;;;20.54;80.76;99097.69;5031537;28;20460;-85
2022/05/26 03:58:55;;;;;;;0.08;0.08;;;;;;;20.78;79.40;99083.28;5031094;28;20029;-89
2022/05/26 04:01:22;;;;;;;0.00;0.00;;;;;;;21.00;77.90;99083.91;5050219;28;20037;-91
2022/05/26 04:03:49;;;;;;;0.10;0.10;;;;;;;21.15;76.20;99093.25;5048779;28;20037;-89
2022/05/26 04:06:15;;;;;;;0.10;0.10;;;;;;;21.30;74.55;99097.16;5050639;28;20040;-86
2022/05/26 04:08:43;;;;;;;0.20;0.20;;;;;;;21.46;74.12;99097.19;5045163;28;20095;-94
2022/05/26 04:11:09;;;;;;;0.00;0.00;;;;;;;21.69;73.23;99100.97;5036277;28;20428;-89
2022/05/26 04:13:35;;;;;;;0.10;0.10;;;;;;;21.89;72.68;99092.91;5042959;28;20028;-86
2022/05/26 04:16:01;;;;;;;0.05;0.05;;;;;;;22.19;71.47;99101.44;5050211;28;20029;-91
2022/05/26 04:18:27;;;;;;;0.08;0.08;;;;;;;22.34;71.14;99116.16;5051980;28;20017;-82
2022/05/26 04:21:02;;;;;;;0.05;0.05;;;;;;;22.54;70.23;99108.06;5035267;28;20053;-84
2022/05/26 04:23:28;;;;;;;0.38;0.38;;;;;;;22.76;70.16;99101.16;5030619;28;20029;-82
2022/05/26 04:25:53;;;;;;;0.10;0.10;;;;;;;23.01;69.79;99103.63;5029400;28;20041;-83
2022/05/26 04:28:18;;;;;;;0.20;0.20;;;;;;;23.28;68.98;99093.69;5031032;28;20021;-83
2022/05/26 04:30:45;;;;;;;0.10;0.10;;;;;;;23.60;68.15;99104.41;5029636;28;20476;-84
2022/05/26 04:33:10;;;;;;;0.17;0.17;;;;;;;23.97;67.44;99105.84;5029771;28;20099;-83
2022/05/26 04:35:36;;;;;;;0.00;0.00;;;;;;;24.19;65.69;99103.47;5029180;28;20459;-86
2022/05/26 04:38:01;;;;;;;0.00;0.00;;;;;;;24.37;64.54;99098.28;5029582;28;20112;-86
2022/05/26 04:40:27;;;;;;;0.10;0.10;;;;;;;24.56;64.42;99106.38;5029618;28;20040;-86
2022/05/26 04:42:53;;;;;;;0.38;0.38;;;;;;;24.78;64.18;99104.75;5029273;28;20390;-86
2022/05/26 04:45:19;;;;;;;0.00;0.00;;;;;;;25.05;63.69;99099.22;5029532;28;20021;-86
2022/05/26 04:47:44;;;;;;;0.10;0.10;;;;;;;25.36;63.67;99094.47;5029292;28;20412;-88
2022/05/26 04:50:11;;;;;;;0.03;0.03;;;;;;;25.69;62.31;99100.31;5029599;28;20393;-87
2022/05/26 04:52:36;;;;;;;0.00;0.00;;;;;;;26.02;61.07;99102.19;5029360;28;20469;-87
2022/05/26 04:55:03;;;;;;;0.00;0.00;;;;;;;26.36;59.99;99093.81;5029041;28;20164;-88
2022/05/26 04:57:28;;;;;;;0.00;0.00;;;;;;;26.73;58.82;99083.06;5029481;28;20064;-87
2022/05/26 04:59:54;;;;;;;0.00;0.00;;;;;;;27.08;57.84;99079.72;5029246;28;20135;-86
2022/05/26 05:02:21;;;;;;;0.35;0.35;;;;;;;27.40;56.82;99080.97;5029404;28;20059;-86
2022/05/26 05:04:48;;;;;;;0.00;0.00;;;;;;;27.71;55.98;99084.19;5029366;28;20138;-86
2022/05/26 05:07:17;;;;;;;0.00;0.00;;;;;;;27.98;55.64;99094.78;5029455;28;20022;-86
2022/05/26 05:09:43;;;;;;;0.28;0.28;;;;;;;28.07;54.26;99112.47;5029245;28;20469;-86
2022/05/26 05:12:12;;;;;;;0.10;0.10;;;;;;;28.02;55.06;99112.84;5029461;28;20041;-86
2022/05/26 05:14:44;;;;;;;0.10;0.10;;;;;;;28.07;54.53;99120.72;5029293;28;20473;-88
2022/05/26 05:17:10;;;;;;;0.30;0.20;;;;;;;28.14;54.71;99128.22;5029474;28;20496;-88
2022/05/26 05:19:36;;;;;;;0.20;0.20;;;;;;;28.26;54.55;99124.28;5029198;28;20029;-88
2022/05/26 05:22:16;;;;;;;0.30;0.30;;;;;;;28.51;55.08;99121.47;5029351;28;20028;-88
2022/05/26 05:25:06;;;;;;;0.05;0.05;;;;;;;28.83;54.13;99126.16;5029130;28;20034;-88
2022/05/26 05:27:35;;;;;;;0.00;0.00;;;;;;;29.21;53.36;99133.84;5029170;28;20029;-88
2022/05/26 05:30:07;;;;;;;0.00;0.00;;;;;;;29.48;51.48;99127.84;5028695;28;20036;-87
2022/05/26 05:32:39;;;;;;;0.10;0.10;;;;;;;29.67;51.95;99132.84;5029187;28;20061;-87
2022/05/26 05:35:11;;;;;;;0.20;0.20;;;;;;;29.95;51.64;99138.59;5028978;28;20489;-86
2022/05/26 05:37:36;;;;;;;0.00;0.00;;;;;;;30.26;50.72;99145.06;5029270;28;20022;-88
2022/05/26 05:40:03;;;;;;;0.00;0.00;;;;;;;30.60;50.41;99143.56;5029183;28;20036;-89
2022/05/26 05:42:29;;;;;;;0.70;0.30;;;;;;;30.77;49.16;99136.28;5028987;28;20401;-88
2022/05/26 05:44:54;;;;;;;0.00;0.00;;;;;;;31.09;49.01;99143.44;5028930;28;20036;-88
2022/05/26 05:47:20;;;;;;;0.00;0.00;;;;;;;31.39;48.03;99145.41;5029119;28;20021;-88
2022/05/26 05:49:45;;;;;;;0.20;0.20;;;;;;;31.54;46.74;99143.25;5028866;28;20444;-88
2022/05/26 05:52:17;;;;;;;0.20;0.20;;;;;;;31.43;46.64;99148.13;5029084;28;20029;-87
2022/05/26 05:54:42;;;;;;;0.20;0.20;;;;;;;31.32;46.62;99142.75;5028756;28;20033;-87
2022/05/26 05:57:08;;;;;;;3.78;0.60;;;;;;;31.17;47.02;99144.16;5028970;28;20025;-86
2022/05/26 05:59:34;;;;;;;0.43;0.43;;;;;;;30.89;47.65;99152.31;5028802;28;20029;-86
2022/05/26 06:02:00;;;;;;;0.63;0.63;;;;;;;30.82;47.87;99135.84;5028634;28;20029;-86
2022/05/26 06:04:25;;;;;;;0.13;0.13;;;;;;;30.60;47.29;99147.13;5030432;28;20048;-87
2022/05/26 06:06:51;;;;;;;0.63;0.63;;;;;;;30.43;48.88;99157.13;5029519;28;20412;-87
2022/05/26 06:09:17;;;;;;;0.95;0.55;;;;;;;30.28;48.69;99148.16;5032407;28;20575;-87
2022/05/26 06:11:44;;;;;;;0.30;0.30;;;;;;;30.02;49.55;99161.38;5032349;28;20033;-87
2022/05/26 06:14:10;;;;;;;0.75;0.60;;;;;;;29.83;50.10;99162.69;5032439;28;20026;-87
2022/05/26 06:16:36;;;;;;;0.77;0.77;;;;;;;29.74;50.40;99165.09;5032428;28;20033;-86
2022/05/26 06:19:03;;;;;;;0.77;0.77;;;;;;;29.51;51.42;99157.38;5032106;28;20488;-86
2022/05/26 06:21:28;;;;;;;0.83;0.77;;;;;;;29.41;51.70;99153.47;5032256;28;20026;-86
2022/05/26 06:23:56;;;;;;;0.20;0.20;;;;;;;29.28;52.00;99164.13;5033302;28;20037;-87
2022/05/26 06:26:26;;;;;;;0.57;0.57;;;;;;;29.11;52.63;99159.47;5032246;28;20069;-85
2022/05/26 06:31:36;;;;;;;0.30;0.30;;;;;;;28.30;55.00;99158.06;5033529;28;20041;-85
2022/05/26 06:39:12;;;;;;;0.80;0.80;;;;;;;27.15;58.13;99164.06;5033252;28;20037;-87
2022/05/26 06:44:21;;;;;;;0.73;0.60;;;;;;;26.56;59.93;99166.81;5033234;28;20041;-85
2022/05/26 06:46:47;;;;;;;0.55;0.55;;;;;;;26.26;60.43;99165.81;5031674;28;20026;-85
2022/05/26 06:49:12;;;;;;;1.40;0.45;;;;;;;26.07;61.93;99171.53;5031872;28;20460;-85
2022/05/26 06:51:39;;;;;;;1.10;1.10;;;;;;;25.98;61.58;99172.59;5031716;28;20408;-83
2022/05/26 06:54:05;;;;;;;0.30;0.30;;;;;;;25.79;62.08;99170.06;5031483;28;20029;-85
2022/05/26 06:56:31;;;;;;;1.83;1.73;;;;;;;25.56;62.16;99176.44;5031670;28;20408;-86
2022/05/26 06:58:56;;;;;;;4.22;0.95;;;;;;;25.36;62.50;99182.06;5031450;28;20025;-86
2022/05/26 07:01:21;;;;;;;1.00;0.95;;;;;;;25.21;63.13;99175.63;5031518;28;20060;-87
2022/05/26 07:03:47;;;;;;;1.80;1.67;;;;;;;25.06;63.99;99171.94;5031363;28;20531;-87
2022/05/26 07:06:18;;;;;;;0.32;0.32;;;;;;;25.01;64.59;99166.78;5031454;28;20025;-86
2022/05/26 07:08:45;;;;;;;0.50;0.50;;;;;;;25.02;64.62;99175.78;5031261;28;20061;-87
2022/05/26 07:11:11;;;;;;;8.43;0.95;;;;;;;25.04;65.06;99176.19;5031410;28;20036;-87
2022/05/26 07:13:36;;;;;;;0.75;0.63;;;;;;;25.10;64.50;99182.91;5031311;28;20437;-87
2022/05/26 07:16:02;;;;;;;0.28;0.28;;;;;;;25.19;64.02;99177.16;5031047;28;20031;-87
2022/05/26 07:18:27;;;;;;;0.68;0.68;;;;;;;25.28;64.23;99183.16;5030996;28;20408;-86
2022/05/26 07:20:53;;;;;;;0.43;0.43;;;;;;;25.39;64.96;99164.16;5030838;28;20022;-86
2022/05/26 07:23:18;;;;;;;0.55;0.45;;;;;;;25.57;65.25;99178.03;5031173;28;20503;-86
2022/05/26 07:25:44;;;;;;;0.65;0.65;;;;;;;25.79;62.97;99176.31;5031018;28;20040;-86
2022/05/26 07:28:13;;;;;;;0.10;0.10;;;;;;;25.79;62.71;99162.59;5031098;28;20022;-87
2022/05/26 07:30:40;;;;;;;0.85;0.28;;;;;;;25.89;62.16;99174.88;5031005;28;20026;-86
2022/05/26 07:33:05;;;;;;;0.28;0.22;;;;;;;25.93;62.14;99167.47;5030783;28;20033;-86
2022/05/26 07:35:30;;;;;;;0.20;0.20;;;;;;;26.03;62.28;99176.94;5030712;28;20443;-86
2022/05/26 07:43:27;;;;;;;0.10;0.10;;;;;;;26.37;60.71;99177.66;5032112;28;20091;-85
2022/05/26 07:45:53;;;;;;;0.00;0.00;;;;;;;26.47;60.64;99175.38;5030509;28;20038;-86
2022/05/26 07:48:20;;;;;;;0.38;0.38;;;;;;;26.56;59.58;99175.81;5030741;28;20416;-86
2022/05/26 07:50:45;;;;;;;0.03;0.03;;;;;;;26.63;60.26;99178.63;5030715;28;20335;-86
2022/05/26 07:53:11;;;;;;;0.10;0.10;;;;;;;26.68;60.20;99185.69;5030679;28;20310;-86
2022/05/26 07:55:42;;;;;;;0.00;0.00;;;;;;;26.71;60.11;99187.69;5030550;28;20120;-86
2022/05/26 07:58:08;;;;;;;0.00;0.00;;;;;;;26.81;60.37;99194.44;5030262;28;20113;-86
2022/05/26 08:00:34;;;;;;;0.57;0.57;;;;;;;26.93;60.09;99190.59;5030441;28;20491;-86
2022/05/26 08:02:59;;;;;;;0.05;0.05;;;;;;;26.95;59.01;99183.56;5030194;28;20116;-86
2022/05/26 08:05:25;;;;;;;0.38;0.17;;;;;;;26.96;59.81;99185.09;5030410;28;20045;-86
2022/05/26 08:07:50;;;;;;;0.55;0.55;;;;;;;27.11;59.90;99179.69;5030071;28;20044;-85
2022/05/26 08:10:16;;;;;;;0.20;0.20;;;;;;;27.22;58.71;99182.50;5030244;28;20120;-86
2022/05/26 08:12:41;;;;;;;0.20;0.20;;;;;;;27.36;59.19;99179.81;5030357;28;20143;-86
2022/05/26 08:15:07;;;;;;;0.05;0.05;;;;;;;27.47;57.51;99188.13;5030104;28;20435;-86
2022/05/26 08:17:32;;;;;;;0.10;0.10;;;;;;;27.48;57.64;99193.22;5030310;28;20469;-85
2022/05/26 08:19:58;;;;;;;0.30;0.30;;;;;;;27.47;56.32;99182.63;5029934;28;20087;-86
2022/05/26 08:22:23;;;;;;;0.25;0.25;;;;;;;27.51;56.95;99183.41;5030030;28;20052;-86
2022/05/26 08:24:53;;;;;;;0.10;0.10;;;;;;;27.50;56.04;99181.06;5030926;28;20029;-84
2022/05/26 08:27:20;;;;;;;0.70;0.70;;;;;;;27.44;57.04;99184.19;5029799;28;20188;-84
2022/05/26 08:29:45;;;;;;;1.08;0.60;;;;;;;27.31;57.77;99180.97;5029450;28;20029;-85
2022/05/26 08:32:11;;;;;;;0.57;0.57;;;;;;;27.26;59.00;99181.34;5029764;28;20036;-87
2022/05/26 08:34:37;;;;;;;0.50;0.50;;;;;;;27.24;58.54;99178.19;5029703;28;20444;-87
2022/05/26 08:37:03;;;;;;;0.32;0.32;;;;;;;27.25;58.47;99179.00;5029734;28;20093;-86
2022/05/26 08:39:31;;;;;;;0.30;0.30;;;;;;;27.34;59.29;99176.66;5029936;28;20030;-87
2022/05/26 08:41:57;;;;;;;0.20;0.20;;;;;;;27.46;58.97;99183.81;5029511;28;20021;-86
2022/05/26 08:44:27;;;;;;;0.30;0.30;;;;;;;27.54;57.68;99182.66;5029806;28;20048;-86
2022/05/26 08:47:01;;;;;;;0.00;0.00;;;;;;;27.69;58.20;99183.47;5029658;28;20032;-86
2022/05/26 08:49:51;;;;;;;0.10;0.10;;;;;;;27.77;55.55;99176.03;5031079;28;20021;-87
2022/05/26 08:52:23;;;;;;;0.32;0.28;;;;;;;27.90;57.56;99176.47;5029780;28;20519;-87
2022/05/26 08:55:21;;;;;;;0.03;0.03;;;;;;;28.10;59.09;99182.41;5029680;28;20481;-86
2022/05/26 08:57:57;;;;;;;0.35;0.35;;;;;;;28.17;56.73;99187.88;5030981;28;20034;-87
2022/05/26 09:00:24;;;;;;;0.45;0.45;;;;;;;28.30;56.30;99184.78;5029707;28;20449;-87
2022/05/26 09:02:59;;;;;;;0.30;0.30;;;;;;;28.41;56.03;99191.81;5029343;28;20026;-87
2022/05/26 09:05:28;;;;;;;0.50;0.50;;;;;;;28.55;55.77;99190.25;5029635;28;20037;-86
2022/05/26 09:13:32;;;;;;;4.85;0.98;;;;;;;28.82;53.15;99185.13;5030878;28;20036;-86
2022/05/26 09:16:05;;;;;;;0.20;0.20;;;;;;;28.89;51.28;99181.56;5029278;28;20128;-86
2022/05/26 09:18:31;;;;;;;0.50;0.50;;;;;;;28.89;53.11;99185.13;5029473;28;20136;-86
2022/05/26 09:21:21;;;;;;;0.30;0.30;;;;;;;28.95;53.89;99181.97;5029196;28;20145;-87
2022/05/26 09:23:47;;;;;;;0.15;0.15;;;;;;;28.98;54.08;99186.66;5029747;28;20447;-86
2022/05/26 09:26:17;;;;;;;1.35;0.47;;;;;;;28.90;53.99;99183.91;5029226;28;20030;-87
2022/05/26 09:28:46;;;;;;;1.15;1.15;;;;;;;28.90;54.69;99189.41;5029511;28;20026;-86
2022/05/26 09:31:43;;;;;;;0.28;0.28;;;;;;;28.82;54.25;99193.41;5029292;28;20088;-87
2022/05/26 09:34:20;;;;;;;0.28;0.28;;;;;;;28.80;53.65;99197.72;5029004;28;20068;-87
2022/05/26 09:36:47;;;;;;;0.40;0.40;;;;;;;28.70;53.25;99191.84;5029417;28;20043;-87
2022/05/26 09:39:13;;;;;;;1.02;1.02;;;;;;;28.70;54.87;99191.06;5029091;28;20116;-87
2022/05/26 09:41:52;;;;;;;1.13;0.95;;;;;;;28.71;52.57;99187.09;5031295;28;20037;-87
2022/05/26 09:44:29;;;;;;;0.90;0.90;;;;;;;28.69;52.57;99184.75;5033067;28;20553;-86
2022/05/26 09:46:57;;;;;;;;;;;;;;;28.74;53.29;99191.84;5033222;28;20467;-86
2022/05/26 09:49:26;;;;;;;0.63;0.63;;;;;;;28.70;52.36;99191.06;5032971;28;19912;-85
2022/05/26 09:52:09;;;;;;;0.43;0.43;;;;;;;28.75;50.83;99205.19;5032935;28;20029;-86
2022/05/26 09:54:35;;;;;;;0.30;0.30;;;;;;;28.78;51.12;99187.09;5032964;28;20029;-86
2022/05/26 09:57:28;;;;;;;2.05;1.85;;;;;;;28.84;50.47;99193.00;5032576;28;20076;-87
2022/05/26 09:59:53;;;;;;;1.10;1.08;;;;;;;28.94;49.80;99194.91;5032473;28;20391;-86
2022/05/26 10:02:33;;;;;;;2.45;0.63;;;;;;;28.97;49.61;99185.88;5032658;28;20083;-87
2022/05/26 10:05:07;;;;;;;0.65;0.65;;;;;;;29.11;49.67;99192.53;5032490;28;20025;-86
2022/05/26 10:08:06;;;;;;;0.70;0.70;;;;;;;29.17;50.80;99196.44;5032703;28;20124;-86
2022/05/26 10:10:42;;;;;;;0.25;0.25;;;;;;;29.29;49.55;99184.97;5032602;28;20029;-86
2022/05/26 10:13:48;;;;;;;0.22;0.20;;;;;;;29.32;49.08;99186.16;5033870;28;20117;-85
2022/05/26 10:16:40;;;;;;;0.68;0.68;;;;;;;29.37;49.45;99188.53;5031418;28;20041;-85
2022/05/26 10:19:14;;;;;;;2.58;0.68;;;;;;;29.45;48.03;99189.28;5032302;28;20037;-85
2022/05/26 10:21:50;;;;;;;0.20;0.20;;;;;;;29.53;48.67;99196.31;5033847;28;20025;-85
2022/05/26 10:24:37;;;;;;;0.13;0.13;;;;;;;29.60;49.20;99187.22;5032104;28;20025;-85
2022/05/26 10:27:15;;;;;;;;;;;;;;;29.71;48.94;99190.69;5032434;28;20397;-85
2022/05/26 10:29:51;;;;;;;0.57;0.57;;;;;;;29.70;47.77;99183.63;5032232;28;19971;-85
2022/05/26 10:32:40;;;;;;;1.13;1.13;;;;;;;29.76;47.24;99181.22;5031805;28;20091;-85
2022/05/26 10:35:24;;;;;;;1.00;1.00;;;;;;;29.75;47.82;99185.97;5031590;28;20136;-85
2022/05/26 10:38:08;;;;;;;0.55;0.20;;;;;;;29.78;48.29;99184.38;5031988;28;20493;-86
2022/05/26 10:40:36;;;;;;;0.17;0.17;;;;;;;29.84;46.67;99174.47;5032155;28;20060;-85
2022/05/26 10:43:11;;;;;;;0.40;0.40;;;;;;;29.83;45.25;99178.44;5031640;28;20025;-86
2022/05/26 10:45:47;;;;;;;0.00;0.00;;;;;;;29.89;45.17;99176.03;5032009;28;20496;-86
2022/05/26 10:48:21;;;;;;;0.75;0.75;;;;;;;29.97;45.29;99167.34;5031661;28;20036;-85
2022/05/26 10:50:52;;;;;;;0.15;0.15;;;;;;;30.01;46.51;99176.34;5031856;28;20095;-85
2022/05/26 10:53:31;;;;;;;0.57;0.57;;;;;;;30.10;47.33;99167.63;5030907;28;20109;-85
2022/05/26 10:56:05;;;;;;;0.30;0.30;;;;;;;30.20;45.97;99163.22;5031561;28;20029;-85
2022/05/26 10:58:39;;;;;;;0.38;0.38;;;;;;;30.28;45.11;99158.44;5031774;28;20029;-86
2022/05/26 11:01:30;;;;;;;0.52;0.52;;;;;;;30.35;45.37;99156.38;5031171;28;20033;-85
2022/05/26 11:04:07;;;;;;;0.00;0.00;;;;;;;30.44;42.80;99160.66;5030948;28;20042;-87
2022/05/26 11:06:37;;;;;;;0.13;0.10;;;;;;;30.45;43.73;99159.47;5031562;28;20021;-85
2022/05/26 11:09:09;;;;;;;0.00;0.00;;;;;;;30.55;44.76;99149.53;5031283;28;20060;-85
2022/05/26 11:11:39;;;;;;;0.45;0.40;;;;;;;30.88;43.49;99149.97;5031281;28;20033;-86
2022/05/26 11:17:22;;;;;;;0.10;0.10;;;;;;;30.73;42.88;99147.38;5032510;28;20582;-85
2022/05/26 11:20:20;;;;;;;0.40;0.40;;;;;;;30.73;41.15;99136.31;5031290;28;20036;-84
2022/05/26 11:22:48;;;;;;;0.52;0.52;;;;;;;30.75;41.60;99138.66;5030501;28;20607;-87
2022/05/26 11:25:15;;;;;;;0.38;0.38;;;;;;;30.74;42.80;99137.13;5030999;28;20071;-87
2022/05/26 11:27:50;;;;;;;0.85;0.85;;;;;;;30.68;38.92;99131.25;5031320;28;20041;-87
2022/05/26 11:36:23;;;;;;;0.57;0.57;;;;;;;30.70;39.94;99112.31;5031627;28;20536;-85
2022/05/26 11:38:51;;;;;;;1.48;1.33;;;;;;;30.76;40.96;99115.41;5030883;28;20037;-85
2022/05/26 11:41:49;;;;;;;0.20;0.20;;;;;;;30.80;38.63;99103.13;5032311;28;20397;-85
2022/05/26 11:45:04;;;;;;;0.60;0.60;;;;;;;30.85;36.59;99101.09;5023483;28;20136;-84
2022/05/26 11:47:50;;;;;;;0.30;0.30;;;;;;;30.85;35.27;99101.88;5032734;28;20392;-85
2022/05/26 11:51:23;;;;;;;0.40;0.40;;;;;;;30.90;36.65;99098.66;5030134;28;20034;-85
2022/05/26 11:53:49;;;;;;;0.30;0.30;;;;;;;30.98;35.99;99107.63;5030080;28;20275;-86
2022/05/26 11:56:30;;;;;;;0.32;0.32;;;;;;;31.02;37.06;99107.59;5030819;28;20026;-85
2022/05/26 11:59:19;;;;;;;0.90;0.35;;;;;;;31.03;36.21;99109.16;5030955;28;20037;-85
2022/05/26 12:01:47;;;;;;;0.10;0.10;;;;;;;30.98;36.64;99105.66;5030511;28;20393;-85
2022/05/26 12:04:12;;;;;;;0.45;0.45;;;;;;;30.94;36.38;99109.66;5029526;28;20025;-85
2022/05/26 12:06:37;;;;;;;0.47;0.40;;;;;;;30.95;35.54;99098.19;5030336;28;20040;-86
2022/05/26 12:09:20;;;;;;;0.15;0.15;;;;;;;30.85;34.83;99092.81;5029944;28;20029;-85
2022/05/26 12:12:22;;;;;;;0.60;0.20;;;;;;;30.80;36.77;99085.78;5030414;28;20425;-85
2022/05/26 12:14:50;;;;;;;0.10;0.10;;;;;;;30.77;36.55;99079.13;5029827;28;20037;-84
2022/05/26 12:17:33;;;;;;;0.60;0.60;;;;;;;30.70;33.99;99084.72;5030116;28;20405;-85
2022/05/26 12:20:11;;;;;;;0.03;0.03;;;;;;;30.58;32.87;99090.75;5030241;28;20485;-85
2022/05/26 12:23:08;;;;;;;1.23;0.43;;;;;;;30.50;33.61;99087.28;5030137;28;20029;-86
2022/05/26 12:25:39;;;;;;;0.30;0.30;;;;;;;30.45;34.68;99099.53;5029978;28;20029;-86
2022/05/26 12:28:25;;;;;;;0.43;0.43;;;;;;;30.43;35.00;99090.09;5029853;28;20037;-86
2022/05/26 12:30:52;;;;;;;0.10;0.10;;;;;;;30.50;36.14;99103.84;5030143;28;20032;-86
2022/05/26 12:33:18;;;;;;;0.10;0.10;;;;;;;30.55;35.50;99097.09;5029907;28;20061;-86
2022/05/26 12:36:02;;;;;;;0.90;0.88;;;;;;;30.60;35.19;99099.41;5030028;28;20485;-86
2022/05/26 12:38:51;;;;;;;0.03;0.03;;;;;;;30.61;34.68;99098.22;5031074;28;20055;-86
2022/05/26 12:41:47;;;;;;;0.00;0.00;;;;;;;30.70;35.03;99106.00;5029626;28;20481;-86
2022/05/26 12:44:32;;;;;;;0.10;0.10;;;;;;;30.72;34.96;99098.88;5029746;28;20091;-86
2022/05/26 12:47:02;;;;;;;0.15;0.15;;;;;;;30.76;34.39;99087.78;5029812;28;20083;-85